Sunday, December 16, 2018, 3:08 PM GMT
Back to Local

CWNH, Riviere Du Loup, Que.

Location: , , Canada Lat: 47.8
Local Time: 3:08 PM GMT (15:08 GMT) Lon: -69.55
Time Zone: GMT Elev: 485 ft

Show me the last for .
Show Coded

Time T Td Feel RH Dir Speed Gust Alt SLP Vis Weather Sky Remarks
2018-12-16 14:00 26 22 - 82 150° 2 - - 30.24 0 None
2018-12-16 13:00 25 22 - 89 170° 1 - - 30.24 0 None
2018-12-16 12:00 24 21 20 87 160° 3 - - 30.25 0 None
2018-12-16 11:00 26 22 22 84 10° 3 - - 30.25 0 None
2018-12-16 10:00 29 22 24 75 20° 5 - - 30.25 0 None
2018-12-16 09:00 28 24 23 82 30° 5 - - 30.26 0 None
2018-12-16 08:00 30 24 23 77 10° 7 - - 30.26 0 None
2018-12-16 07:00 31 24 25 75 340° 6 - - 30.28 0 None
2018-12-16 06:00 32 25 24 75 340° 8 - - 30.28 0 None
2018-12-16 05:00 31 25 - 77 100° 1 - - 30.27 0 None
2018-12-16 04:00 33 26 28 73 330° 6 - - 30.26 0 None
2018-12-16 03:00 34 26 - 73 310° 2 - - 30.24 0 None
2018-12-16 02:00 34 27 31 75 240° 3 - - 30.23 0 None
2018-12-16 01:00 33 27 - 77 240° 2 - - 30.22 0 None
2018-12-16 00:00 35 27 32 72 250° 3 - - 30.21 0 None
2018-12-15 23:00 34 28 31 78 220° 3 - - 30.21 0 None
2018-12-15 22:00 34 28 - 76 240° 2 - - 30.19 0 None
2018-12-15 21:00 35 28 32 74 280° 3 - - 30.16 0 None
2018-12-15 20:00 34 29 31 80 280° 3 - - 30.14 0 None
2018-12-15 19:00 34 30 31 85 240° 3 - - 30.11 0 None
2018-12-15 18:00 34 30 28 85 240° 6 - - 30.09 0 None
2018-12-15 17:00 33 30 22 86 240° 8 18 - 30.06 0 None
2018-12-15 16:00 33 30 26 88 230° 8 - - 30.06 0 None

Support USWX by starting your Amazon purchase here.